Terminal Aerodrome Forecast
Issued by NWS

Home | Current Version | Previous Version | Text Only | Print | Product List | Glossary On
Versions: 1 2 3 4 5 6 7 8 9 10 11 12 13 14 15 16 17 18 19 20
000
FTUS46 KMFR 221100
TAFOTH
TAF
KOTH 221137Z 2212/2312 16004KT P6SM OVC015
     FM221800 35009KT P6SM SKC
     FM222000 35017G26KT P6SM SKC
     FM230400 36008KT P6SM BKN012
     FM230700 03005KT P6SM OVC008=

USA.gov is the U.S. government's official web portal to all federal, state and local government web resources and services.